NCAR-RAP Real-Time Weather Data

Output produced by METARs form (08 May 2021  01:39 UTC)
found at http://weather.rap.ucar.edu/surface/
 
KEYW 080053Z 34012KT 10SM CLR 27/22 A3000 RMK AO2 SLP160 T02670222 $
KEYW 072353Z 35011KT 10SM SCT024 27/22 A2999 RMK AO2 SLP156 T02720222 53004 $
KEYW 072315Z 33009KT 10SM SCT027 A3000 RMK AO2 $
KEYW 072307Z 33011KT 10SM BKN027 A3000 RMK AO2 $
KEYW 072253Z 34011G17KT 10SM SCT025 28/22 A2999 RMK AO2 SLP156 T02780222 $
KEYW 072153Z 34012G18KT 10SM BKN030 28/24 A2998 RMK AO2 SLP153 T02830239 $
KEYW 072135Z 33011KT 10SM SCT026 BKN031 29/24 A2999 RMK AO2 T02890239 $
KEYW 072115Z 34011KT 10SM SCT022 BKN027 BKN036 29/24 A2998 RMK AO2 T02890239 $
KEYW 072053Z 33012KT 10SM FEW022 29/24 A2998 RMK AO2 SLP152 T02940239 56013 $
KEYW 071953Z 32011KT 10SM CLR 29/23 A2999 RMK AO2 SLP153 T02940233 $
KEYW 071853Z 36008KT 10SM CLR 29/23 A3000 RMK AO2 SLP157 T02890233 $
KEYW 071753Z 33010KT 10SM CLR 29/24 A3002 RMK AO2 SLP166 60112 T02890239 58009 $
KEYW 071700Z 34007KT 10SM CLR 29/24 A3004 RMK AO2 T02890239 $
KEYW 071653Z 34010KT 10SM BKN023 29/23 A3005 RMK AO2 SLP175 T02890228 $
KEYW 071628Z 35011KT 10SM BKN023 A3006 RMK AO2 $
KEYW 071556Z 35009KT 10SM VCTS BKN023 A3006 RMK AO2 $
KEYW 071553Z 35009KT 10SM BKN023 A3005 RMK AO2 SLP177 $
KEYW 071500Z 33008KT 10SM BKN021 BKN027 OVC034 27/24 A3005 RMK AO2 LTG DSNT E T02720239 $
KEYW 071453Z 32009KT 10SM FEW024 BKN041 BKN050 27/24 A3005 RMK AO2 LTG DSNT E RAB29E48 SLP175 P0000 60112 T02720239 51008 $
KEYW 071400Z 29006KT 10SM FEW024 BKN041 BKN050 28/23 A3004 RMK AO2 T02830228 $
KEYW 071353Z 29005KT 10SM FEW009 BKN019 BKN090 28/23 A3004 RMK WATERSPOUT B1220 ENE MOV W WATERSPOUT E1252 AO2 RAE1258 SLP172 P0000 T02830228 $
KEYW 071300Z 05003KT 10SM FEW009 BKN019 BKN090 24/21 A3004 RMK WATERSPOUT B1220 ENE MOV W WATERSPOUT E1252 AO2 RAE1258 P0000 T02440211
KEYW 071253Z 15006KT 6SM -RA FEW010 BKN021 OVC090 24/21 A3004 RMK WATERSPOUT B20 ENE MOV W WATERSPOUT E52 AO2 RAE06B21 SLP171 P0112 T02440206
KEYW 071249Z 16008KT 1 1/4SM +FC -RA FEW009 BKN019 OVC050 24/21 A3004 RMK WATERSPOUT B20 ENE MOV W AO2 RAE06B21 P0112
KEYW 071247Z 16008KT 3/4SM +FC -RA SCT009 BKN019 OVC050 23/21 A3004 RMK WATERSPOUT B20 ENE MOV W AO2 RAE06B21 P0112
KEYW 071235Z 36007G19KT 280V040 1/4SM +FC +RA FG SCT009 OVC017 24/22 A3004 RMK WATERSPOUT B20 ENE MOV W AO2 RAE06B21 P0040 T02390222
KEYW 071232Z 01007KT 1/2SM +FC +RA FG FEW011 OVC017 25/23 A3004 RMK WATERSPOUT B20 ENE MOV W AO2 RAE06B21 P0013 T02500228
KEYW 071231Z 36007KT 3/4SM +FC +RA BR FEW011 OVC017 26/23 A3004 RMK WATERSPOUT B20 ENE MOV W AO2 RAE06B21 P0006 T02560233
KEYW 071229Z 35009KT 1 1/2SM -RA OVC017 27/24 A3003 RMK AO2 RAE06B21 P0000 T02670239
KEYW 071217Z 00000KT 10SM BKN017 OVC040 27/23 A3003 RMK AO2 RAE06 P0000 T02720233
KEYW 071153Z 00000KT 7SM -RA SCT023 SCT043 27/23 A3003 RMK AO2 RAB43 SLP168 P0001 60001 70001 T02670233 10278 20250 53015
KEYW 071101Z 01003KT 10SM SCT023 SCT043 26/23 A3001 RMK AO2 T02560233
KEYW 071053Z 35003KT 10SM BKN023 OVC043 26/23 A3001 RMK AO2 SLP160 T02560233
KEYW 071003Z AUTO 36003KT 10SM BKN023 26/23 A2999 RMK AO2 T02560228
KEYW 070953Z AUTO 02003KT 10SM SCT023 26/23 A2999 RMK AO2 SLP154 T02560228